sensor_id;sensor_type;location;lat;lon;timestamp;P1;durP1;ratioP1;P2;durP2;ratioP2
51967;SDS011;75327;42.568;23.176;2024-02-21T00:10:41;5.53;;;3.67;;
51967;SDS011;75327;42.568;23.176;2024-02-21T00:25:44;14.83;;;6.97;;
51967;SDS011;75327;42.568;23.176;2024-02-21T00:40:47;6.47;;;4.03;;
51967;SDS011;75327;42.568;23.176;2024-02-21T00:55:49;5.07;;;4.10;;
51967;SDS011;75327;42.568;23.176;2024-02-21T01:10:52;5.80;;;4.17;;
51967;SDS011;75327;42.568;23.176;2024-02-21T01:25:54;5.53;;;3.80;;
51967;SDS011;75327;42.568;23.176;2024-02-21T01:40:57;5.87;;;3.87;;
51967;SDS011;75327;42.568;23.176;2024-02-21T01:56:00;7.90;;;4.83;;
51967;SDS011;75327;42.568;23.176;2024-02-21T02:11:03;7.23;;;4.43;;
51967;SDS011;75327;42.568;23.176;2024-02-21T02:26:05;10.33;;;5.60;;
51967;SDS011;75327;42.568;23.176;2024-02-21T02:41:08;13.07;;;7.37;;
51967;SDS011;75327;42.568;23.176;2024-02-21T02:56:14;13.43;;;8.80;;
51967;SDS011;75327;42.568;23.176;2024-02-21T03:11:17;15.60;;;9.40;;
51967;SDS011;75327;42.568;23.176;2024-02-21T03:26:20;16.90;;;10.03;;
51967;SDS011;75327;42.568;23.176;2024-02-21T03:41:22;16.37;;;9.13;;
51967;SDS011;75327;42.568;23.176;2024-02-21T03:56:24;14.23;;;8.80;;
51967;SDS011;75327;42.568;23.176;2024-02-21T04:11:26;14.70;;;9.00;;
51967;SDS011;75327;42.568;23.176;2024-02-21T04:26:28;15.43;;;8.93;;
51967;SDS011;75327;42.568;23.176;2024-02-21T04:41:30;13.00;;;8.17;;
51967;SDS011;75327;42.568;23.176;2024-02-21T04:56:32;15.37;;;7.93;;
51967;SDS011;75327;42.568;23.176;2024-02-21T05:11:36;12.40;;;6.93;;
51967;SDS011;75327;42.568;23.176;2024-02-21T05:26:39;11.80;;;6.57;;
51967;SDS011;75327;42.568;23.176;2024-02-21T05:41:41;12.43;;;6.80;;
51967;SDS011;75327;42.568;23.176;2024-02-21T05:56:44;16.40;;;9.23;;
51967;SDS011;75327;42.568;23.176;2024-02-21T06:11:47;16.73;;;9.97;;
51967;SDS011;75327;42.568;23.176;2024-02-21T06:26:50;16.23;;;8.10;;
51967;SDS011;75327;42.568;23.176;2024-02-21T06:41:53;21.57;;;13.27;;
51967;SDS011;75327;42.568;23.176;2024-02-21T06:56:56;17.40;;;9.87;;
51967;SDS011;75327;42.568;23.176;2024-02-21T07:11:58;17.70;;;10.10;;
51967;SDS011;75327;42.568;23.176;2024-02-21T07:27:01;17.93;;;10.73;;
51967;SDS011;75327;42.568;23.176;2024-02-21T07:42:06;21.40;;;11.00;;
51967;SDS011;75327;42.568;23.176;2024-02-21T07:57:08;20.17;;;11.00;;
51967;SDS011;75327;42.568;23.176;2024-02-21T08:12:10;18.13;;;10.93;;
51967;SDS011;75327;42.568;23.176;2024-02-21T08:27:12;17.97;;;9.73;;
51967;SDS011;75327;42.568;23.176;2024-02-21T08:42:14;18.83;;;11.10;;
51967;SDS011;75327;42.568;23.176;2024-02-21T08:57:17;17.13;;;10.20;;
51967;SDS011;75327;42.568;23.176;2024-02-21T09:12:20;13.93;;;9.53;;
51967;SDS011;75327;42.568;23.176;2024-02-21T09:27:22;14.20;;;8.77;;
51967;SDS011;75327;42.568;23.176;2024-02-21T09:42:28;13.57;;;8.43;;
51967;SDS011;75327;42.568;23.176;2024-02-21T09:57:44;13.30;;;8.37;;
51967;SDS011;75327;42.568;23.176;2024-02-21T10:12:49;12.43;;;7.97;;
51967;SDS011;75327;42.568;23.176;2024-02-21T10:27:54;14.00;;;9.10;;
51967;SDS011;75327;42.568;23.176;2024-02-21T10:42:57;10.27;;;7.00;;
51967;SDS011;75327;42.568;23.176;2024-02-21T10:58:00;10.60;;;7.07;;
51967;SDS011;75327;42.568;23.176;2024-02-21T11:13:07;9.60;;;5.27;;
51967;SDS011;75327;42.568;23.176;2024-02-21T11:28:09;6.87;;;5.03;;
51967;SDS011;75327;42.568;23.176;2024-02-21T11:43:13;8.47;;;6.10;;
51967;SDS011;75327;42.568;23.176;2024-02-21T11:58:16;9.70;;;5.83;;
51967;SDS011;75327;42.568;23.176;2024-02-21T12:13:18;13.40;;;6.90;;
51967;SDS011;75327;42.568;23.176;2024-02-21T12:28:24;7.57;;;5.30;;
51967;SDS011;75327;42.568;23.176;2024-02-21T12:43:27;10.53;;;6.03;;
51967;SDS011;75327;42.568;23.176;2024-02-21T12:58:30;10.47;;;7.30;;
51967;SDS011;75327;42.568;23.176;2024-02-21T13:13:33;9.70;;;7.03;;
51967;SDS011;75327;42.568;23.176;2024-02-21T13:28:35;8.67;;;5.07;;
51967;SDS011;75327;42.568;23.176;2024-02-21T13:43:37;7.60;;;5.63;;
51967;SDS011;75327;42.568;23.176;2024-02-21T13:58:39;8.03;;;4.80;;
51967;SDS011;75327;42.568;23.176;2024-02-21T14:13:42;7.43;;;4.67;;
51967;SDS011;75327;42.568;23.176;2024-02-21T14:28:44;8.93;;;4.67;;
51967;SDS011;75327;42.568;23.176;2024-02-21T14:43:47;8.97;;;5.00;;
51967;SDS011;75327;42.568;23.176;2024-02-21T14:58:49;16.43;;;6.20;;
51967;SDS011;75327;42.568;23.176;2024-02-21T15:13:56;12.27;;;6.57;;
51967;SDS011;75327;42.568;23.176;2024-02-21T15:28:58;4.63;;;3.50;;
51967;SDS011;75327;42.568;23.176;2024-02-21T15:44:00;7.60;;;3.37;;
51967;SDS011;75327;42.568;23.176;2024-02-21T15:59:03;9.00;;;4.93;;
51967;SDS011;75327;42.568;23.176;2024-02-21T16:14:06;11.93;;;5.37;;
51967;SDS011;75327;42.568;23.176;2024-02-21T16:29:08;8.70;;;4.40;;
51967;SDS011;75327;42.568;23.176;2024-02-21T16:44:11;7.63;;;4.37;;
51967;SDS011;75327;42.568;23.176;2024-02-21T16:59:13;8.53;;;4.87;;
51967;SDS011;75327;42.568;23.176;2024-02-21T17:14:15;4.03;;;3.27;;
51967;SDS011;75327;42.568;23.176;2024-02-21T17:29:18;7.63;;;4.83;;
51967;SDS011;75327;42.568;23.176;2024-02-21T17:44:20;9.67;;;6.13;;
51967;SDS011;75327;42.568;23.176;2024-02-21T17:59:23;12.80;;;7.40;;
51967;SDS011;75327;42.568;23.176;2024-02-21T18:14:26;9.60;;;5.43;;
51967;SDS011;75327;42.568;23.176;2024-02-21T18:29:28;7.47;;;4.20;;
51967;SDS011;75327;42.568;23.176;2024-02-21T18:44:40;7.30;;;4.80;;
51967;SDS011;75327;42.568;23.176;2024-02-21T18:59:42;4.80;;;3.87;;
51967;SDS011;75327;42.568;23.176;2024-02-21T19:14:44;6.20;;;3.93;;
51967;SDS011;75327;42.568;23.176;2024-02-21T19:29:47;4.37;;;3.47;;
51967;SDS011;75327;42.568;23.176;2024-02-21T19:44:49;4.23;;;3.07;;
51967;SDS011;75327;42.568;23.176;2024-02-21T19:59:51;5.63;;;4.10;;
51967;SDS011;75327;42.568;23.176;2024-02-21T20:14:55;2.77;;;2.17;;
51967;SDS011;75327;42.568;23.176;2024-02-21T20:29:57;2.23;;;1.83;;
51967;SDS011;75327;42.568;23.176;2024-02-21T20:44:59;8.63;;;6.93;;
51967;SDS011;75327;42.568;23.176;2024-02-21T21:00:03;8.07;;;4.93;;
51967;SDS011;75327;42.568;23.176;2024-02-21T21:15:07;7.90;;;4.47;;
51967;SDS011;75327;42.568;23.176;2024-02-21T21:30:10;9.40;;;4.57;;
51967;SDS011;75327;42.568;23.176;2024-02-21T21:45:13;3.83;;;3.30;;
51967;SDS011;75327;42.568;23.176;2024-02-21T22:00:16;13.07;;;7.27;;
51967;SDS011;75327;42.568;23.176;2024-02-21T22:15:18;9.07;;;7.27;;
51967;SDS011;75327;42.568;23.176;2024-02-21T22:30:20;10.33;;;6.00;;
51967;SDS011;75327;42.568;23.176;2024-02-21T22:45:22;6.37;;;4.13;;
51967;SDS011;75327;42.568;23.176;2024-02-21T23:00:25;6.37;;;3.83;;
51967;SDS011;75327;42.568;23.176;2024-02-21T23:15:27;3.87;;;1.90;;
51967;SDS011;75327;42.568;23.176;2024-02-21T23:30:29;5.97;;;3.33;;
51967;SDS011;75327;42.568;23.176;2024-02-21T23:45:31;2.53;;;1.77;;
